Time,TemperatureF,DewpointF,PressureIn,WindDirection,WindDirectionDegrees,WindSpeedMPH,WindSpeedGustMPH,Humidity,HourlyPrecipIn,Conditions,Clouds,dailyrainin,SolarRadiationWatts/m^2,SoftwareType,DateUTC
2014-02-19 00:08:00,44.5,34.0,30.10,SE,135,1.0,2.0,66,0.00,,,0.00,0,weatherlink.com 1.10,2014-02-19 05:08:00,
2014-02-19 00:23:00,44.3,35.0,30.10,SE,135,0.0,1.0,69,0.00,,,0.00,0,weatherlink.com 1.10,2014-02-19 05:23:00,
2014-02-19 00:38:00,45.2,35.0,30.10,SE,135,0.0,2.0,68,0.00,,,0.00,0,weatherlink.com 1.10,2014-02-19 05:38:00,
2014-02-19 00:53:00,46.0,36.0,30.10,SE,135,0.0,0.0,68,0.00,,,0.00,0,weatherlink.com 1.10,2014-02-19 05:53:00,
2014-02-19 01:08:00,46.4,36.0,30.10,SSE,153,0.0,2.0,68,0.00,,,0.00,0,weatherlink.com 1.10,2014-02-19 06:08:00,
2014-02-19 01:23:00,46.4,36.0,30.10,ESE,109,0.0,3.0,68,0.00,,,0.00,0,weatherlink.com 1.10,2014-02-19 06:23:00,
2014-02-19 01:38:00,45.6,37.0,30.09,ESE,109,0.0,0.0,72,0.00,,,0.00,0,weatherlink.com 1.10,2014-02-19 06:38:00,
2014-02-19 01:53:00,46.0,38.0,30.08,ESE,109,0.0,0.0,73,0.00,,,0.00,0,weatherlink.com 1.10,2014-02-19 06:53:00,
2014-02-19 02:08:00,46.9,39.0,30.09,ESE,109,0.0,0.0,73,0.00,,,0.00,0,weatherlink.com 1.10,2014-02-19 07:08:00,
2014-02-19 02:23:00,49.5,42.0,30.08,South,178,1.0,7.0,76,0.00,,,0.00,0,weatherlink.com 1.10,2014-02-19 07:23:00,
2014-02-19 02:38:00,49.5,43.0,30.06,South,169,1.0,3.0,77,0.00,,,0.00,0,weatherlink.com 1.10,2014-02-19 07:38:00,
2014-02-19 02:53:00,50.1,44.0,30.05,SSE,153,0.0,3.0,79,0.00,,,0.00,0,weatherlink.com 1.10,2014-02-19 07:53:00,
2014-02-19 03:08:00,50.4,45.0,30.05,South,175,0.0,4.0,81,0.00,,,0.00,0,weatherlink.com 1.10,2014-02-19 08:08:00,
2014-02-19 03:23:00,50.6,46.0,30.04,SE,130,0.0,4.0,85,0.01,,,0.01,0,weatherlink.com 1.10,2014-02-19 08:23:00,
2014-02-19 03:38:00,49.9,47.0,30.03,South,186,3.0,3.0,88,0.01,,,0.01,0,weatherlink.com 1.10,2014-02-19 08:38:00,
2014-02-19 03:52:00,49.5,47.0,30.03,SE,128,1.0,1.0,91,0.01,,,0.01,0,weatherlink.com 1.10,2014-02-19 08:52:00,
2014-02-19 04:08:00,49.7,48.0,30.02,SSE,157,0.0,5.0,93,0.01,,,0.01,0,weatherlink.com 1.10,2014-02-19 09:08:00,
2014-02-19 04:23:00,50.4,49.0,30.03,SSW,195,3.0,6.0,93,0.00,,,0.01,0,weatherlink.com 1.10,2014-02-19 09:23:00,
2014-02-19 04:38:00,50.7,49.0,30.03,SSE,167,4.0,8.0,93,0.03,,,0.04,0,weatherlink.com 1.10,2014-02-19 09:38:00,
2014-02-19 04:53:00,50.3,48.0,30.05,South,180,0.0,4.0,93,0.08,,,0.09,0,weatherlink.com 1.10,2014-02-19 09:53:00,
2014-02-19 05:08:00,50.3,49.0,30.05,South,170,0.0,5.0,94,0.14,,,0.15,0,weatherlink.com 1.10,2014-02-19 10:08:00,
2014-02-19 05:23:00,50.3,49.0,30.05,SSE,163,1.0,5.0,95,0.22,,,0.23,0,weatherlink.com 1.10,2014-02-19 10:23:00,
2014-02-19 05:38:00,50.6,49.0,30.00,South,184,0.0,5.0,95,0.27,,,0.31,0,weatherlink.com 1.10,2014-02-19 10:38:00,
2014-02-19 05:53:00,50.9,50.0,30.02,SSW,202,0.0,8.0,96,0.26,,,0.35,0,weatherlink.com 1.10,2014-02-19 10:53:00,
2014-02-19 06:08:00,51.2,50.0,30.00,ESE,117,3.0,6.0,96,0.25,,,0.40,0,weatherlink.com 1.10,2014-02-19 11:08:00,
2014-02-19 06:23:00,51.5,50.0,29.98,South,175,1.0,6.0,96,0.20,,,0.43,0,weatherlink.com 1.10,2014-02-19 11:23:00,
2014-02-19 06:38:00,51.8,51.0,29.98,SSE,167,0.0,7.0,96,0.11,,,0.43,0,weatherlink.com 1.10,2014-02-19 11:38:00,
2014-02-19 06:53:00,51.8,51.0,30.00,SSW,198,1.0,6.0,96,0.08,,,0.43,0,weatherlink.com 1.10,2014-02-19 11:53:00,
2014-02-19 07:08:00,51.8,51.0,30.00,SSW,203,1.0,6.0,96,0.03,,,0.43,0,weatherlink.com 1.10,2014-02-19 12:08:00,
2014-02-19 07:23:00,51.9,51.0,30.00,South,171,5.0,9.0,96,0.01,,,0.44,11,weatherlink.com 1.10,2014-02-19 12:23:00,
2014-02-19 07:38:00,52.0,51.0,29.99,SSE,163,0.0,6.0,96,0.01,,,0.44,35,weatherlink.com 1.10,2014-02-19 12:38:00,
2014-02-19 07:53:00,52.3,51.0,30.00,SSE,149,0.0,6.0,96,0.01,,,0.44,19,weatherlink.com 1.10,2014-02-19 12:53:00,
2014-02-19 08:08:00,52.6,52.0,30.00,South,173,2.0,7.0,96,0.01,,,0.44,26,weatherlink.com 1.10,2014-02-19 13:08:00,
2014-02-19 08:23:00,53.0,52.0,29.99,SE,145,1.0,7.0,96,0.00,,,0.44,60,weatherlink.com 1.10,2014-02-19 13:23:00,
2014-02-19 08:38:00,53.4,52.0,29.99,South,181,3.0,8.0,96,0.00,,,0.44,67,weatherlink.com 1.10,2014-02-19 13:38:00,
2014-02-19 08:53:00,54.1,53.0,29.99,SSE,153,5.0,7.0,96,0.00,,,0.44,58,weatherlink.com 1.10,2014-02-19 13:53:00,
2014-02-19 09:08:00,54.8,54.0,30.00,SW,232,1.0,9.0,96,0.00,,,0.44,74,weatherlink.com 1.10,2014-02-19 14:08:00,
2014-02-19 09:23:00,55.3,54.0,29.99,SSW,192,4.0,8.0,95,0.00,,,0.44,107,weatherlink.com 1.10,2014-02-19 14:23:00,
2014-02-19 09:38:00,56.1,55.0,29.99,SE,126,3.0,15.0,95,0.00,,,0.44,176,weatherlink.com 1.10,2014-02-19 14:38:00,
2014-02-19 09:54:00,56.6,55.0,29.99,SW,234,6.0,6.0,94,0.00,,,0.44,104,weatherlink.com 1.10,2014-02-19 14:54:00,
2014-02-19 10:09:00,56.9,55.0,29.98,SSE,168,4.0,8.0,94,0.00,,,0.44,67,weatherlink.com 1.10,2014-02-19 15:09:00,
2014-02-19 10:24:00,57.3,56.0,29.99,SW,225,2.0,5.0,94,0.00,,,0.44,63,weatherlink.com 1.10,2014-02-19 15:24:00,
2014-02-19 10:39:00,57.8,56.0,29.98,WSW,242,0.0,5.0,93,0.00,,,0.44,121,weatherlink.com 1.10,2014-02-19 15:39:00,
2014-02-19 10:54:00,58.7,57.0,29.98,SSW,205,0.0,5.0,93,0.00,,,0.44,141,weatherlink.com 1.10,2014-02-19 15:54:00,
2014-02-19 11:09:00,59.8,57.0,29.97,SW,229,4.0,8.0,91,0.00,,,0.44,197,weatherlink.com 1.10,2014-02-19 16:09:00,
2014-02-19 11:24:00,60.2,57.0,29.97,SSW,212,3.0,11.0,90,0.00,,,0.44,195,weatherlink.com 1.10,2014-02-19 16:24:00,
2014-02-19 11:39:00,61.0,58.0,29.97,SSW,204,2.0,9.0,89,0.00,,,0.44,190,weatherlink.com 1.10,2014-02-19 16:39:00,
2014-02-19 11:54:00,61.7,58.0,29.96,SW,223,4.0,9.0,88,0.00,,,0.44,352,weatherlink.com 1.10,2014-02-19 16:54:00,
2014-02-19 12:09:00,62.8,59.0,29.95,SW,225,1.0,15.0,86,0.00,,,0.44,318,weatherlink.com 1.10,2014-02-19 17:09:00,
2014-02-19 12:24:00,63.4,59.0,29.94,WSW,249,5.0,15.0,85,0.00,,,0.44,724,weatherlink.com 1.10,2014-02-19 17:24:00,
2014-02-19 12:39:00,64.1,59.0,29.94,SSW,198,3.0,17.0,84,0.00,,,0.44,315,weatherlink.com 1.10,2014-02-19 17:39:00,
2014-02-19 12:54:00,65.3,60.0,29.93,SW,223,5.0,12.0,83,0.00,,,0.44,327,weatherlink.com 1.10,2014-02-19 17:54:00,
2014-02-19 13:09:00,66.2,60.0,29.93,WSW,248,8.0,12.0,80,0.00,,,0.44,308,weatherlink.com 1.10,2014-02-19 18:09:00,
2014-02-19 13:24:00,66.8,60.0,29.92,West,261,8.0,14.0,78,0.00,,,0.44,327,weatherlink.com 1.10,2014-02-19 18:24:00,
2014-02-19 13:39:00,67.6,60.0,29.92,South,180,9.0,16.0,77,0.00,,,0.44,323,weatherlink.com 1.10,2014-02-19 18:39:00,
2014-02-19 13:55:00,68.2,60.0,29.92,WSW,250,5.0,11.0,75,0.00,,,0.44,529,weatherlink.com 1.10,2014-02-19 18:55:00,
2014-02-19 14:09:00,68.4,59.0,29.91,West,273,9.0,12.0,73,0.00,,,0.44,193,weatherlink.com 1.10,2014-02-19 19:09:00,
2014-02-19 14:24:00,69.2,59.0,29.91,WSW,252,5.0,14.0,71,0.00,,,0.44,251,weatherlink.com 1.10,2014-02-19 19:24:00,
2014-02-19 14:39:00,70.1,60.0,29.91,West,267,4.0,16.0,70,0.00,,,0.44,334,weatherlink.com 1.10,2014-02-19 19:39:00,
2014-02-19 14:54:00,70.2,59.0,29.91,SW,219,4.0,14.0,67,0.00,,,0.44,169,weatherlink.com 1.10,2014-02-19 19:54:00,
2014-02-19 15:10:00,70.3,59.0,29.90,SW,215,2.0,10.0,68,0.00,,,0.44,299,weatherlink.com 1.10,2014-02-19 20:10:00,
2014-02-19 15:25:00,70.9,59.0,29.91,West,265,3.0,11.0,67,0.00,,,0.44,204,weatherlink.com 1.10,2014-02-19 20:25:00,
2014-02-19 15:40:00,71.5,59.0,29.91,SW,226,3.0,11.0,65,0.00,,,0.44,234,weatherlink.com 1.10,2014-02-19 20:40:00,
2014-02-19 15:55:00,71.6,59.0,29.91,SSW,211,3.0,10.0,65,0.00,,,0.44,234,weatherlink.com 1.10,2014-02-19 20:55:00,
2014-02-19 16:10:00,72.1,59.0,29.92,West,270,7.0,11.0,64,0.00,,,0.44,325,weatherlink.com 1.10,2014-02-19 21:10:00,
2014-02-19 16:25:00,72.4,59.0,29.92,SW,234,3.0,10.0,63,0.00,,,0.44,192,weatherlink.com 1.10,2014-02-19 21:25:00,
2014-02-19 16:40:00,71.8,59.0,29.92,WSW,253,2.0,8.0,64,0.00,,,0.44,192,weatherlink.com 1.10,2014-02-19 21:40:00,
2014-02-19 16:55:00,71.9,59.0,29.93,SW,222,1.0,7.0,65,0.00,,,0.44,135,weatherlink.com 1.10,2014-02-19 21:55:00,
2014-02-19 17:10:00,72.1,59.0,29.93,SW,223,1.0,6.0,64,0.00,,,0.44,90,weatherlink.com 1.10,2014-02-19 22:10:00,
2014-02-19 17:25:00,71.7,58.0,29.94,SW,221,0.0,7.0,63,0.00,,,0.44,42,weatherlink.com 1.10,2014-02-19 22:25:00,
2014-02-19 17:40:00,70.4,58.0,29.95,WSW,239,0.0,2.0,66,0.00,,,0.44,16,weatherlink.com 1.10,2014-02-19 22:40:00,
2014-02-19 17:55:00,69.4,58.0,29.95,SW,236,1.0,1.0,68,0.00,,,0.44,5,weatherlink.com 1.10,2014-02-19 22:55:00,
2014-02-19 18:10:00,67.7,58.0,29.96,SW,236,0.0,1.0,72,0.00,,,0.44,0,weatherlink.com 1.10,2014-02-19 23:10:00,
2014-02-19 18:25:00,65.0,58.0,29.97,SW,236,0.0,1.0,78,0.00,,,0.44,0,weatherlink.com 1.10,2014-02-19 23:25:00,
2014-02-19 18:40:00,63.2,58.0,29.98,SW,236,0.0,0.0,82,0.00,,,0.44,0,weatherlink.com 1.10,2014-02-19 23:40:00,
2014-02-19 18:55:00,61.5,57.0,29.99,SW,236,0.0,0.0,85,0.00,,,0.44,0,weatherlink.com 1.10,2014-02-19 23:55:00,
2014-02-19 19:10:00,60.2,56.0,29.99,SW,236,0.0,1.0,87,0.00,,,0.44,0,weatherlink.com 1.10,2014-02-20 00:10:00,
2014-02-19 19:25:00,58.4,55.0,30.00,SW,236,0.0,0.0,88,0.00,,,0.44,0,weatherlink.com 1.10,2014-02-20 00:25:00,
2014-02-19 19:40:00,57.4,55.0,30.00,SW,236,0.0,0.0,92,0.00,,,0.44,0,weatherlink.com 1.10,2014-02-20 00:40:00,
2014-02-19 19:55:00,57.1,55.0,30.01,SW,236,0.0,0.0,92,0.00,,,0.44,0,weatherlink.com 1.10,2014-02-20 00:55:00,
2014-02-19 20:10:00,56.0,54.0,30.01,SW,236,0.0,0.0,92,0.00,,,0.44,0,weatherlink.com 1.10,2014-02-20 01:10:00,
2014-02-19 20:25:00,56.0,54.0,30.02,SW,236,0.0,1.0,94,0.00,,,0.44,0,weatherlink.com 1.10,2014-02-20 01:25:00,
2014-02-19 20:40:00,55.7,54.0,30.02,SW,236,0.0,1.0,94,0.00,,,0.44,0,weatherlink.com 1.10,2014-02-20 01:40:00,
2014-02-19 20:55:00,54.9,53.0,30.03,SW,236,0.0,0.0,94,0.00,,,0.44,0,weatherlink.com 1.10,2014-02-20 01:55:00,
2014-02-19 21:10:00,54.7,53.0,30.04,SW,236,0.0,0.0,94,0.00,,,0.44,0,weatherlink.com 1.10,2014-02-20 02:10:00,
2014-02-19 21:26:00,54.9,54.0,30.05,SW,236,0.0,0.0,95,0.00,,,0.44,0,weatherlink.com 1.10,2014-02-20 02:26:00,
2014-02-19 21:40:00,54.1,53.0,30.05,SW,236,0.0,0.0,94,0.00,,,0.44,0,weatherlink.com 1.10,2014-02-20 02:40:00,
2014-02-19 21:55:00,53.8,52.0,30.07,SW,236,0.0,0.0,95,0.00,,,0.44,0,weatherlink.com 1.10,2014-02-20 02:55:00,
2014-02-19 22:10:00,53.3,52.0,30.07,SW,236,0.0,0.0,95,0.00,,,0.44,0,weatherlink.com 1.10,2014-02-20 03:10:00,
2014-02-19 22:25:00,53.1,52.0,30.07,SW,236,0.0,0.0,95,0.00,,,0.44,0,weatherlink.com 1.10,2014-02-20 03:25:00,
2014-02-19 22:40:00,52.8,52.0,30.08,SW,236,0.0,0.0,96,0.00,,,0.44,0,weatherlink.com 1.10,2014-02-20 03:40:00,
2014-02-19 22:55:00,52.4,51.0,30.08,SW,236,0.0,0.0,95,0.00,,,0.44,0,weatherlink.com 1.10,2014-02-20 03:55:00,
2014-02-19 23:10:00,51.6,50.0,30.08,SW,236,0.0,0.0,95,0.00,,,0.44,0,weatherlink.com 1.10,2014-02-20 04:10:00,
2014-02-19 23:37:00,51.4,50.0,30.09,SW,236,0.0,0.0,96,0.00,,,0.44,0,weatherlink.com 1.10,2014-02-20 04:37:00,
2014-02-19 23:55:00,51.0,50.0,30.09,SW,236,0.0,0.0,96,0.00,,,0.44,0,weatherlink.com 1.10,2014-02-20 04:55:00,